sensor_id;sensor_type;location;lat;lon;timestamp;temperature;humidity
2783;DHT22;1399;47.072;15.452;2023-08-01T00:02:19;20.80;88.30
2783;DHT22;1399;47.072;15.452;2023-08-01T00:04:45;20.80;88.40
2783;DHT22;1399;47.072;15.452;2023-08-01T00:07:11;20.70;88.30
2783;DHT22;1399;47.072;15.452;2023-08-01T00:09:36;20.70;88.40
2783;DHT22;1399;47.072;15.452;2023-08-01T00:12:02;20.70;88.50
2783;DHT22;1399;47.072;15.452;2023-08-01T00:14:28;20.70;88.70
2783;DHT22;1399;47.072;15.452;2023-08-01T00:16:54;20.70;88.70
2783;DHT22;1399;47.072;15.452;2023-08-01T00:19:20;20.60;88.70
2783;DHT22;1399;47.072;15.452;2023-08-01T00:21:46;20.60;88.80
2783;DHT22;1399;47.072;15.452;2023-08-01T00:24:12;20.60;88.90
2783;DHT22;1399;47.072;15.452;2023-08-01T00:26:39;20.60;88.90
2783;DHT22;1399;47.072;15.452;2023-08-01T00:29:05;20.60;89.00
2783;DHT22;1399;47.072;15.452;2023-08-01T00:31:31;20.60;89.10
2783;DHT22;1399;47.072;15.452;2023-08-01T00:33:57;20.60;89.20
2783;DHT22;1399;47.072;15.452;2023-08-01T00:36:23;20.50;89.20
2783;DHT22;1399;47.072;15.452;2023-08-01T00:38:48;20.50;89.30
2783;DHT22;1399;47.072;15.452;2023-08-01T00:41:14;20.50;89.30
2783;DHT22;1399;47.072;15.452;2023-08-01T00:43:40;20.50;89.50
2783;DHT22;1399;47.072;15.452;2023-08-01T00:46:06;20.50;89.60
2783;DHT22;1399;47.072;15.452;2023-08-01T00:48:32;20.50;89.60
2783;DHT22;1399;47.072;15.452;2023-08-01T00:51:02;20.40;89.60
2783;DHT22;1399;47.072;15.452;2023-08-01T00:53:29;20.40;89.70
2783;DHT22;1399;47.072;15.452;2023-08-01T00:55:57;20.40;89.70
2783;DHT22;1399;47.072;15.452;2023-08-01T00:58:23;20.40;89.80
2783;DHT22;1399;47.072;15.452;2023-08-01T01:00:49;20.40;89.80
2783;DHT22;1399;47.072;15.452;2023-08-01T01:03:16;20.40;89.90
2783;DHT22;1399;47.072;15.452;2023-08-01T01:05:53;20.40;90.00
2783;DHT22;1399;47.072;15.452;2023-08-01T01:08:22;20.40;90.00
2783;DHT22;1399;47.072;15.452;2023-08-01T01:10:48;20.30;89.90
2783;DHT22;1399;47.072;15.452;2023-08-01T01:13:13;20.30;89.90
2783;DHT22;1399;47.072;15.452;2023-08-01T01:15:39;20.30;90.00
2783;DHT22;1399;47.072;15.452;2023-08-01T01:18:04;20.30;90.00
2783;DHT22;1399;47.072;15.452;2023-08-01T01:20:36;20.30;90.00
2783;DHT22;1399;47.072;15.452;2023-08-01T01:23:06;20.30;90.00
2783;DHT22;1399;47.072;15.452;2023-08-01T01:25:35;20.30;90.00
2783;DHT22;1399;47.072;15.452;2023-08-01T01:28:04;20.30;90.00
2783;DHT22;1399;47.072;15.452;2023-08-01T01:30:31;20.20;90.00
2783;DHT22;1399;47.072;15.452;2023-08-01T01:33:00;20.20;89.90
2783;DHT22;1399;47.072;15.452;2023-08-01T01:35:26;20.20;90.00
2783;DHT22;1399;47.072;15.452;2023-08-01T01:37:52;20.30;90.00
2783;DHT22;1399;47.072;15.452;2023-08-01T01:40:18;20.30;90.00
2783;DHT22;1399;47.072;15.452;2023-08-01T01:42:45;20.20;90.00
2783;DHT22;1399;47.072;15.452;2023-08-01T01:45:11;20.20;90.00
2783;DHT22;1399;47.072;15.452;2023-08-01T01:47:36;20.20;90.00
2783;DHT22;1399;47.072;15.452;2023-08-01T01:50:02;20.20;90.00
2783;DHT22;1399;47.072;15.452;2023-08-01T01:52:28;20.20;90.00
2783;DHT22;1399;47.072;15.452;2023-08-01T01:54:54;20.20;90.00
2783;DHT22;1399;47.072;15.452;2023-08-01T01:57:20;20.20;90.00
2783;DHT22;1399;47.072;15.452;2023-08-01T01:59:46;20.20;90.00
2783;DHT22;1399;47.072;15.452;2023-08-01T02:02:11;20.20;90.00
2783;DHT22;1399;47.072;15.452;2023-08-01T02:04:37;20.10;90.00
2783;DHT22;1399;47.072;15.452;2023-08-01T02:07:03;20.10;90.00
2783;DHT22;1399;47.072;15.452;2023-08-01T02:09:29;20.10;90.00
2783;DHT22;1399;47.072;15.452;2023-08-01T02:11:55;20.10;90.00
2783;DHT22;1399;47.072;15.452;2023-08-01T02:14:21;20.10;90.10
2783;DHT22;1399;47.072;15.452;2023-08-01T02:16:46;20.10;90.10
2783;DHT22;1399;47.072;15.452;2023-08-01T02:19:12;20.10;90.10
2783;DHT22;1399;47.072;15.452;2023-08-01T02:21:38;20.00;90.10
2783;DHT22;1399;47.072;15.452;2023-08-01T02:24:04;20.00;90.10
2783;DHT22;1399;47.072;15.452;2023-08-01T02:26:30;20.00;90.10
2783;DHT22;1399;47.072;15.452;2023-08-01T02:28:56;20.00;90.10
2783;DHT22;1399;47.072;15.452;2023-08-01T02:31:22;20.00;90.10
2783;DHT22;1399;47.072;15.452;2023-08-01T02:33:47;20.00;90.10
2783;DHT22;1399;47.072;15.452;2023-08-01T02:36:13;20.00;90.10
2783;DHT22;1399;47.072;15.452;2023-08-01T02:38:39;19.90;90.10
2783;DHT22;1399;47.072;15.452;2023-08-01T02:41:04;20.00;90.10
2783;DHT22;1399;47.072;15.452;2023-08-01T02:43:30;19.90;90.10
2783;DHT22;1399;47.072;15.452;2023-08-01T02:45:56;19.90;90.10
2783;DHT22;1399;47.072;15.452;2023-08-01T02:48:22;19.90;90.10
2783;DHT22;1399;47.072;15.452;2023-08-01T02:50:47;19.90;90.10
2783;DHT22;1399;47.072;15.452;2023-08-01T02:53:14;19.90;90.10
2783;DHT22;1399;47.072;15.452;2023-08-01T02:55:40;19.90;90.10
2783;DHT22;1399;47.072;15.452;2023-08-01T02:58:06;19.90;90.10
2783;DHT22;1399;47.072;15.452;2023-08-01T03:00:31;19.90;90.10
2783;DHT22;1399;47.072;15.452;2023-08-01T03:02:57;19.90;90.10
2783;DHT22;1399;47.072;15.452;2023-08-01T03:05:23;19.90;90.10
2783;DHT22;1399;47.072;15.452;2023-08-01T03:07:49;19.80;90.10
2783;DHT22;1399;47.072;15.452;2023-08-01T03:10:14;19.90;90.10
2783;DHT22;1399;47.072;15.452;2023-08-01T03:12:40;19.90;90.10
2783;DHT22;1399;47.072;15.452;2023-08-01T03:15:06;19.80;90.10
2783;DHT22;1399;47.072;15.452;2023-08-01T03:17:34;19.80;90.10
2783;DHT22;1399;47.072;15.452;2023-08-01T03:20:00;19.80;90.10
2783;DHT22;1399;47.072;15.452;2023-08-01T03:22:26;19.80;90.50
2783;DHT22;1399;47.072;15.452;2023-08-01T03:24:52;19.80;90.10
2783;DHT22;1399;47.072;15.452;2023-08-01T03:27:17;19.80;90.20
2783;DHT22;1399;47.072;15.452;2023-08-01T03:29:43;19.80;90.20
2783;DHT22;1399;47.072;15.452;2023-08-01T03:32:09;19.80;90.20
2783;DHT22;1399;47.072;15.452;2023-08-01T03:34:35;19.80;90.20
2783;DHT22;1399;47.072;15.452;2023-08-01T03:37:00;19.80;90.20
2783;DHT22;1399;47.072;15.452;2023-08-01T03:39:26;19.70;90.10
2783;DHT22;1399;47.072;15.452;2023-08-01T03:41:52;19.70;90.10
2783;DHT22;1399;47.072;15.452;2023-08-01T03:44:18;19.70;90.10
2783;DHT22;1399;47.072;15.452;2023-08-01T03:46:43;19.70;90.10
2783;DHT22;1399;47.072;15.452;2023-08-01T03:49:09;19.70;90.10
2783;DHT22;1399;47.072;15.452;2023-08-01T03:51:35;19.70;90.20
2783;DHT22;1399;47.072;15.452;2023-08-01T03:54:01;19.70;90.20
2783;DHT22;1399;47.072;15.452;2023-08-01T03:56:27;19.70;90.10
2783;DHT22;1399;47.072;15.452;2023-08-01T03:58:53;19.70;90.10
2783;DHT22;1399;47.072;15.452;2023-08-01T04:01:19;19.60;90.10
2783;DHT22;1399;47.072;15.452;2023-08-01T04:03:46;19.60;90.10
2783;DHT22;1399;47.072;15.452;2023-08-01T04:06:12;19.60;90.10
2783;DHT22;1399;47.072;15.452;2023-08-01T04:08:40;19.70;90.10
2783;DHT22;1399;47.072;15.452;2023-08-01T04:11:06;19.60;90.10
2783;DHT22;1399;47.072;15.452;2023-08-01T04:13:32;19.60;90.00
2783;DHT22;1399;47.072;15.452;2023-08-01T04:15:58;19.60;90.00
2783;DHT22;1399;47.072;15.452;2023-08-01T04:18:24;19.70;90.10
2783;DHT22;1399;47.072;15.452;2023-08-01T04:20:49;19.70;90.10
2783;DHT22;1399;47.072;15.452;2023-08-01T04:23:15;19.70;90.00
2783;DHT22;1399;47.072;15.452;2023-08-01T04:25:41;19.70;90.00
2783;DHT22;1399;47.072;15.452;2023-08-01T04:28:07;19.70;90.00
2783;DHT22;1399;47.072;15.452;2023-08-01T04:30:33;19.70;89.90
2783;DHT22;1399;47.072;15.452;2023-08-01T04:32:59;19.80;89.90
2783;DHT22;1399;47.072;15.452;2023-08-01T04:35:24;19.70;89.70
2783;DHT22;1399;47.072;15.452;2023-08-01T04:37:50;19.80;89.80
2783;DHT22;1399;47.072;15.452;2023-08-01T04:40:16;19.80;89.70
2783;DHT22;1399;47.072;15.452;2023-08-01T04:42:42;19.80;89.70
2783;DHT22;1399;47.072;15.452;2023-08-01T04:45:08;19.90;89.60
2783;DHT22;1399;47.072;15.452;2023-08-01T04:47:34;19.90;89.40
2783;DHT22;1399;47.072;15.452;2023-08-01T04:50:00;19.90;89.20
2783;DHT22;1399;47.072;15.452;2023-08-01T04:52:26;20.00;89.10
2783;DHT22;1399;47.072;15.452;2023-08-01T04:54:52;20.00;88.90
2783;DHT22;1399;47.072;15.452;2023-08-01T04:57:17;20.10;88.70
2783;DHT22;1399;47.072;15.452;2023-08-01T04:59:43;20.10;88.50
2783;DHT22;1399;47.072;15.452;2023-08-01T05:02:09;20.20;88.40
2783;DHT22;1399;47.072;15.452;2023-08-01T05:04:35;20.20;88.20
2783;DHT22;1399;47.072;15.452;2023-08-01T05:07:00;20.30;88.20
2783;DHT22;1399;47.072;15.452;2023-08-01T05:09:26;20.40;88.00
2783;DHT22;1399;47.072;15.452;2023-08-01T05:11:52;20.40;87.80
2783;DHT22;1399;47.072;15.452;2023-08-01T05:14:17;20.50;87.70
2783;DHT22;1399;47.072;15.452;2023-08-01T05:16:43;20.50;87.50
2783;DHT22;1399;47.072;15.452;2023-08-01T05:19:09;20.50;87.30
2783;DHT22;1399;47.072;15.452;2023-08-01T05:21:35;20.60;87.20
2783;DHT22;1399;47.072;15.452;2023-08-01T05:24:00;20.60;87.00
2783;DHT22;1399;47.072;15.452;2023-08-01T05:26:26;20.60;86.90
2783;DHT22;1399;47.072;15.452;2023-08-01T05:28:52;20.60;86.80
2783;DHT22;1399;47.072;15.452;2023-08-01T05:31:17;20.60;86.70
2783;DHT22;1399;47.072;15.452;2023-08-01T05:33:43;20.70;86.80
2783;DHT22;1399;47.072;15.452;2023-08-01T05:36:09;20.80;86.80
2783;DHT22;1399;47.072;15.452;2023-08-01T05:38:35;20.80;86.70
2783;DHT22;1399;47.072;15.452;2023-08-01T05:41:00;20.90;87.50
2783;DHT22;1399;47.072;15.452;2023-08-01T05:43:26;21.00;86.50
2783;DHT22;1399;47.072;15.452;2023-08-01T05:45:52;21.00;86.20
2783;DHT22;1399;47.072;15.452;2023-08-01T05:48:18;21.10;85.90
2783;DHT22;1399;47.072;15.452;2023-08-01T05:50:43;21.20;85.70
2783;DHT22;1399;47.072;15.452;2023-08-01T05:53:09;21.20;85.60
2783;DHT22;1399;47.072;15.452;2023-08-01T05:55:35;21.30;85.30
2783;DHT22;1399;47.072;15.452;2023-08-01T05:58:00;21.40;84.90
2783;DHT22;1399;47.072;15.452;2023-08-01T06:00:26;21.50;84.70
2783;DHT22;1399;47.072;15.452;2023-08-01T06:02:52;21.60;84.40
2783;DHT22;1399;47.072;15.452;2023-08-01T06:05:17;21.90;84.00
2783;DHT22;1399;47.072;15.452;2023-08-01T06:07:43;22.10;83.10
2783;DHT22;1399;47.072;15.452;2023-08-01T06:10:09;22.10;82.30
2783;DHT22;1399;47.072;15.452;2023-08-01T06:12:35;22.10;82.10
2783;DHT22;1399;47.072;15.452;2023-08-01T06:15:01;22.20;82.00
2783;DHT22;1399;47.072;15.452;2023-08-01T06:17:27;22.30;81.60
2783;DHT22;1399;47.072;15.452;2023-08-01T06:19:52;22.60;81.10
2783;DHT22;1399;47.072;15.452;2023-08-01T06:22:20;22.80;80.10
2783;DHT22;1399;47.072;15.452;2023-08-01T06:24:46;22.80;79.40
2783;DHT22;1399;47.072;15.452;2023-08-01T06:27:11;22.80;79.20
2783;DHT22;1399;47.072;15.452;2023-08-01T06:29:38;22.90;79.20
2783;DHT22;1399;47.072;15.452;2023-08-01T06:32:04;23.60;78.00
2783;DHT22;1399;47.072;15.452;2023-08-01T06:34:29;24.00;75.70
2783;DHT22;1399;47.072;15.452;2023-08-01T06:36:55;24.20;74.60
2783;DHT22;1399;47.072;15.452;2023-08-01T06:39:21;24.30;74.20
2783;DHT22;1399;47.072;15.452;2023-08-01T06:41:47;24.50;73.60
2783;DHT22;1399;47.072;15.452;2023-08-01T06:44:13;24.60;72.90
2783;DHT22;1399;47.072;15.452;2023-08-01T06:46:39;24.60;72.60
2783;DHT22;1399;47.072;15.452;2023-08-01T06:49:05;24.60;72.80
2783;DHT22;1399;47.072;15.452;2023-08-01T06:51:30;24.60;72.50
2783;DHT22;1399;47.072;15.452;2023-08-01T06:53:56;24.50;72.50
2783;DHT22;1399;47.072;15.452;2023-08-01T06:56:22;24.40;72.90
2783;DHT22;1399;47.072;15.452;2023-08-01T06:58:47;24.30;73.30
2783;DHT22;1399;47.072;15.452;2023-08-01T07:01:13;24.10;73.70
2783;DHT22;1399;47.072;15.452;2023-08-01T07:03:39;24.00;74.00
2783;DHT22;1399;47.072;15.452;2023-08-01T07:06:05;23.90;74.30
2783;DHT22;1399;47.072;15.452;2023-08-01T07:08:30;23.80;74.50
2783;DHT22;1399;47.072;15.452;2023-08-01T07:10:58;23.70;74.80
2783;DHT22;1399;47.072;15.452;2023-08-01T07:13:25;23.70;75.30
2783;DHT22;1399;47.072;15.452;2023-08-01T07:15:51;23.60;75.60
2783;DHT22;1399;47.072;15.452;2023-08-01T07:18:16;23.60;75.80
2783;DHT22;1399;47.072;15.452;2023-08-01T07:20:42;23.60;75.90
2783;DHT22;1399;47.072;15.452;2023-08-01T07:23:08;23.60;75.80
2783;DHT22;1399;47.072;15.452;2023-08-01T07:25:33;23.70;75.60
2783;DHT22;1399;47.072;15.452;2023-08-01T07:27:59;23.80;75.20
2783;DHT22;1399;47.072;15.452;2023-08-01T07:30:25;24.00;74.90
2783;DHT22;1399;47.072;15.452;2023-08-01T07:32:51;24.10;74.60
2783;DHT22;1399;47.072;15.452;2023-08-01T07:35:16;24.20;74.20
2783;DHT22;1399;47.072;15.452;2023-08-01T07:37:42;24.30;73.90
2783;DHT22;1399;47.072;15.452;2023-08-01T07:40:08;24.40;73.80
2783;DHT22;1399;47.072;15.452;2023-08-01T07:42:34;24.30;73.70
2783;DHT22;1399;47.072;15.452;2023-08-01T07:45:00;24.30;73.70
2783;DHT22;1399;47.072;15.452;2023-08-01T07:47:26;24.30;73.90
2783;DHT22;1399;47.072;15.452;2023-08-01T07:49:53;24.30;74.00
2783;DHT22;1399;47.072;15.452;2023-08-01T07:52:18;24.20;74.10
2783;DHT22;1399;47.072;15.452;2023-08-01T07:54:44;24.20;74.40
2783;DHT22;1399;47.072;15.452;2023-08-01T07:57:10;24.10;74.60
2783;DHT22;1399;47.072;15.452;2023-08-01T07:59:36;24.00;74.70
2783;DHT22;1399;47.072;15.452;2023-08-01T08:02:02;24.00;74.90
2783;DHT22;1399;47.072;15.452;2023-08-01T08:04:28;24.00;75.00
2783;DHT22;1399;47.072;15.452;2023-08-01T08:06:54;24.00;75.10
2783;DHT22;1399;47.072;15.452;2023-08-01T08:09:20;24.00;75.10
2783;DHT22;1399;47.072;15.452;2023-08-01T08:11:48;24.00;75.10
2783;DHT22;1399;47.072;15.452;2023-08-01T08:14:14;24.00;75.20
2783;DHT22;1399;47.072;15.452;2023-08-01T08:16:41;24.10;75.30
2783;DHT22;1399;47.072;15.452;2023-08-01T08:19:06;24.10;75.30
2783;DHT22;1399;47.072;15.452;2023-08-01T08:21:32;24.10;75.20
2783;DHT22;1399;47.072;15.452;2023-08-01T08:23:58;24.10;75.20
2783;DHT22;1399;47.072;15.452;2023-08-01T08:26:24;24.10;75.20
2783;DHT22;1399;47.072;15.452;2023-08-01T08:28:49;24.10;75.20
2783;DHT22;1399;47.072;15.452;2023-08-01T08:31:15;24.10;75.30
2783;DHT22;1399;47.072;15.452;2023-08-01T08:33:41;24.00;75.30
2783;DHT22;1399;47.072;15.452;2023-08-01T08:36:06;24.00;76.40
2783;DHT22;1399;47.072;15.452;2023-08-01T08:38:32;24.00;75.70
2783;DHT22;1399;47.072;15.452;2023-08-01T08:41:20;23.90;75.70
2783;DHT22;1399;47.072;15.452;2023-08-01T08:43:44;23.90;75.80
2783;DHT22;1399;47.072;15.452;2023-08-01T08:46:15;23.90;75.80
2783;DHT22;1399;47.072;15.452;2023-08-01T08:48:42;24.00;75.80
2783;DHT22;1399;47.072;15.452;2023-08-01T08:51:10;24.00;75.80
2783;DHT22;1399;47.072;15.452;2023-08-01T08:53:36;24.00;75.70
2783;DHT22;1399;47.072;15.452;2023-08-01T08:56:02;24.00;75.70
2783;DHT22;1399;47.072;15.452;2023-08-01T08:58:31;24.10;75.80
2783;DHT22;1399;47.072;15.452;2023-08-01T09:01:00;24.10;75.70
2783;DHT22;1399;47.072;15.452;2023-08-01T09:03:26;24.10;75.60
2783;DHT22;1399;47.072;15.452;2023-08-01T09:05:57;24.20;75.50
2783;DHT22;1399;47.072;15.452;2023-08-01T09:08:27;24.20;75.30
2783;DHT22;1399;47.072;15.452;2023-08-01T09:10:54;24.30;75.30
2783;DHT22;1399;47.072;15.452;2023-08-01T09:13:20;24.30;75.20
2783;DHT22;1399;47.072;15.452;2023-08-01T09:15:47;24.40;75.30
2783;DHT22;1399;47.072;15.452;2023-08-01T09:18:13;24.40;75.10
2783;DHT22;1399;47.072;15.452;2023-08-01T09:20:47;24.50;75.90
2783;DHT22;1399;47.072;15.452;2023-08-01T09:23:13;24.60;75.10
2783;DHT22;1399;47.072;15.452;2023-08-01T09:25:40;24.60;74.90
2783;DHT22;1399;47.072;15.452;2023-08-01T09:28:22;24.60;74.90
2783;DHT22;1399;47.072;15.452;2023-08-01T09:30:53;24.60;75.10
2783;DHT22;1399;47.072;15.452;2023-08-01T09:33:21;24.60;75.10
2783;DHT22;1399;47.072;15.452;2023-08-01T09:35:49;24.60;75.10
2783;DHT22;1399;47.072;15.452;2023-08-01T09:38:15;24.60;75.30
2783;DHT22;1399;47.072;15.452;2023-08-01T09:40:43;24.60;76.10
2783;DHT22;1399;47.072;15.452;2023-08-01T09:43:13;24.60;75.40
2783;DHT22;1399;47.072;15.452;2023-08-01T09:45:52;24.60;75.50
2783;DHT22;1399;47.072;15.452;2023-08-01T09:48:29;24.60;75.70
2783;DHT22;1399;47.072;15.452;2023-08-01T09:51:12;24.50;75.80
2783;DHT22;1399;47.072;15.452;2023-08-01T09:53:56;24.50;76.20
2783;DHT22;1399;47.072;15.452;2023-08-01T09:56:24;24.40;76.40
2783;DHT22;1399;47.072;15.452;2023-08-01T09:58:52;24.40;76.60
2783;DHT22;1399;47.072;15.452;2023-08-01T10:01:20;24.30;76.80
2783;DHT22;1399;47.072;15.452;2023-08-01T10:03:51;24.30;76.90
2783;DHT22;1399;47.072;15.452;2023-08-01T10:06:21;24.30;77.00
2783;DHT22;1399;47.072;15.452;2023-08-01T10:08:48;24.30;77.20
2783;DHT22;1399;47.072;15.452;2023-08-01T10:11:16;24.30;77.30
2783;DHT22;1399;47.072;15.452;2023-08-01T10:13:42;24.20;77.20
2783;DHT22;1399;47.072;15.452;2023-08-01T10:16:09;24.20;77.40
2783;DHT22;1399;47.072;15.452;2023-08-01T10:18:36;24.20;77.50
2783;DHT22;1399;47.072;15.452;2023-08-01T10:21:13;24.20;77.60
2783;DHT22;1399;47.072;15.452;2023-08-01T10:23:39;24.10;77.50
2783;DHT22;1399;47.072;15.452;2023-08-01T10:26:08;24.10;77.50
2783;DHT22;1399;47.072;15.452;2023-08-01T10:28:39;24.10;77.40
2783;DHT22;1399;47.072;15.452;2023-08-01T10:31:15;24.10;77.40
2783;DHT22;1399;47.072;15.452;2023-08-01T10:33:44;24.10;77.50
2783;DHT22;1399;47.072;15.452;2023-08-01T10:36:21;24.10;77.60
2783;DHT22;1399;47.072;15.452;2023-08-01T10:38:56;24.10;77.70
2783;DHT22;1399;47.072;15.452;2023-08-01T10:41:27;24.00;77.80
2783;DHT22;1399;47.072;15.452;2023-08-01T10:46:44;23.90;78.20
2783;DHT22;1399;47.072;15.452;2023-08-01T10:49:10;23.90;78.40
2783;DHT22;1399;47.072;15.452;2023-08-01T10:51:36;23.80;78.40
2783;DHT22;1399;47.072;15.452;2023-08-01T10:54:02;23.80;78.60
2783;DHT22;1399;47.072;15.452;2023-08-01T10:56:31;23.80;78.80
2783;DHT22;1399;47.072;15.452;2023-08-01T10:58:58;23.70;78.90
2783;DHT22;1399;47.072;15.452;2023-08-01T11:01:24;23.70;79.20
2783;DHT22;1399;47.072;15.452;2023-08-01T11:03:52;23.70;79.50
2783;DHT22;1399;47.072;15.452;2023-08-01T11:06:17;23.60;79.70
2783;DHT22;1399;47.072;15.452;2023-08-01T11:08:43;23.60;80.00
2783;DHT22;1399;47.072;15.452;2023-08-01T11:11:13;23.60;80.20
2783;DHT22;1399;47.072;15.452;2023-08-01T11:13:39;23.60;80.50
2783;DHT22;1399;47.072;15.452;2023-08-01T11:16:06;23.50;80.70
2783;DHT22;1399;47.072;15.452;2023-08-01T11:18:45;23.50;81.00
2783;DHT22;1399;47.072;15.452;2023-08-01T11:21:11;23.50;81.30
2783;DHT22;1399;47.072;15.452;2023-08-01T11:23:36;23.50;81.50
2783;DHT22;1399;47.072;15.452;2023-08-01T11:26:10;23.40;81.50
2783;DHT22;1399;47.072;15.452;2023-08-01T11:28:36;23.40;81.80
2783;DHT22;1399;47.072;15.452;2023-08-01T11:31:10;23.40;82.00
2783;DHT22;1399;47.072;15.452;2023-08-01T11:33:37;23.40;82.20
2783;DHT22;1399;47.072;15.452;2023-08-01T11:36:03;23.40;82.30
2783;DHT22;1399;47.072;15.452;2023-08-01T11:38:30;23.40;82.50
2783;DHT22;1399;47.072;15.452;2023-08-01T11:40:57;23.40;82.60
2783;DHT22;1399;47.072;15.452;2023-08-01T11:43:23;23.40;82.80
2783;DHT22;1399;47.072;15.452;2023-08-01T11:45:56;23.40;82.80
2783;DHT22;1399;47.072;15.452;2023-08-01T11:48:24;23.40;83.00
2783;DHT22;1399;47.072;15.452;2023-08-01T11:50:59;23.30;83.00
2783;DHT22;1399;47.072;15.452;2023-08-01T11:53:25;23.30;83.10
2783;DHT22;1399;47.072;15.452;2023-08-01T11:55:51;23.40;83.30
2783;DHT22;1399;47.072;15.452;2023-08-01T11:58:35;23.40;83.10
2783;DHT22;1399;47.072;15.452;2023-08-01T12:01:06;23.50;82.70
2783;DHT22;1399;47.072;15.452;2023-08-01T12:03:45;23.50;82.20
2783;DHT22;1399;47.072;15.452;2023-08-01T12:06:12;23.60;81.80
2783;DHT22;1399;47.072;15.452;2023-08-01T12:08:40;23.60;81.30
2783;DHT22;1399;47.072;15.452;2023-08-01T12:11:20;23.70;81.20
2783;DHT22;1399;47.072;15.452;2023-08-01T12:13:47;23.70;81.00
2783;DHT22;1399;47.072;15.452;2023-08-01T12:16:13;23.70;81.00
2783;DHT22;1399;47.072;15.452;2023-08-01T12:18:42;23.70;80.80
2783;DHT22;1399;47.072;15.452;2023-08-01T12:21:10;23.70;80.70
2783;DHT22;1399;47.072;15.452;2023-08-01T12:23:36;23.70;81.00
2783;DHT22;1399;47.072;15.452;2023-08-01T12:26:02;23.70;81.20
2783;DHT22;1399;47.072;15.452;2023-08-01T12:28:27;23.60;81.30
2783;DHT22;1399;47.072;15.452;2023-08-01T12:30:53;23.60;82.00
2783;DHT22;1399;47.072;15.452;2023-08-01T12:33:19;23.60;82.70
2783;DHT22;1399;47.072;15.452;2023-08-01T12:35:47;23.50;83.40
2783;DHT22;1399;47.072;15.452;2023-08-01T12:38:12;23.40;84.20
2783;DHT22;1399;47.072;15.452;2023-08-01T12:40:38;23.40;85.00
2783;DHT22;1399;47.072;15.452;2023-08-01T12:43:04;23.30;85.60
2783;DHT22;1399;47.072;15.452;2023-08-01T12:45:31;23.30;86.20
2783;DHT22;1399;47.072;15.452;2023-08-01T12:47:56;23.20;86.60
2783;DHT22;1399;47.072;15.452;2023-08-01T12:50:22;23.20;87.30
2783;DHT22;1399;47.072;15.452;2023-08-01T12:52:48;23.10;88.10
2783;DHT22;1399;47.072;15.452;2023-08-01T12:55:14;23.10;89.00
2783;DHT22;1399;47.072;15.452;2023-08-01T12:57:39;23.00;88.70
2783;DHT22;1399;47.072;15.452;2023-08-01T13:00:06;22.90;87.70
2783;DHT22;1399;47.072;15.452;2023-08-01T13:02:32;22.80;86.80
2783;DHT22;1399;47.072;15.452;2023-08-01T13:04:57;22.70;86.50
2783;DHT22;1399;47.072;15.452;2023-08-01T13:07:23;22.60;86.30
2783;DHT22;1399;47.072;15.452;2023-08-01T13:09:49;22.50;86.30
2783;DHT22;1399;47.072;15.452;2023-08-01T13:12:14;22.40;86.10
2783;DHT22;1399;47.072;15.452;2023-08-01T13:14:40;22.30;85.70
2783;DHT22;1399;47.072;15.452;2023-08-01T13:17:06;22.20;85.40
2783;DHT22;1399;47.072;15.452;2023-08-01T13:19:32;22.10;84.80
2783;DHT22;1399;47.072;15.452;2023-08-01T13:21:57;22.10;84.30
2783;DHT22;1399;47.072;15.452;2023-08-01T13:24:23;22.00;83.90
2783;DHT22;1399;47.072;15.452;2023-08-01T13:26:49;21.90;83.70
2783;DHT22;1399;47.072;15.452;2023-08-01T13:29:15;21.80;83.70
2783;DHT22;1399;47.072;15.452;2023-08-01T13:31:40;21.70;83.90
2783;DHT22;1399;47.072;15.452;2023-08-01T13:34:17;21.60;84.10
2783;DHT22;1399;47.072;15.452;2023-08-01T13:36:43;21.50;84.30
2783;DHT22;1399;47.072;15.452;2023-08-01T13:39:09;21.50;84.50
2783;DHT22;1399;47.072;15.452;2023-08-01T13:41:35;21.50;84.80
2783;DHT22;1399;47.072;15.452;2023-08-01T13:44:01;21.40;84.80
2783;DHT22;1399;47.072;15.452;2023-08-01T13:46:27;21.40;85.00
2783;DHT22;1399;47.072;15.452;2023-08-01T13:48:53;21.40;85.20
2783;DHT22;1399;47.072;15.452;2023-08-01T13:51:19;21.40;85.20
2783;DHT22;1399;47.072;15.452;2023-08-01T13:53:45;21.30;85.10
2783;DHT22;1399;47.072;15.452;2023-08-01T13:56:11;21.30;85.20
2783;DHT22;1399;47.072;15.452;2023-08-01T13:58:38;21.20;85.20
2783;DHT22;1399;47.072;15.452;2023-08-01T14:01:05;21.20;85.20
2783;DHT22;1399;47.072;15.452;2023-08-01T14:03:35;21.10;85.20
2783;DHT22;1399;47.072;15.452;2023-08-01T14:06:07;21.10;85.30
2783;DHT22;1399;47.072;15.452;2023-08-01T14:08:34;21.10;85.40
2783;DHT22;1399;47.072;15.452;2023-08-01T14:11:02;21.10;85.40
2783;DHT22;1399;47.072;15.452;2023-08-01T14:13:28;21.00;85.30
2783;DHT22;1399;47.072;15.452;2023-08-01T14:15:54;21.00;85.30
2783;DHT22;1399;47.072;15.452;2023-08-01T14:18:20;21.00;85.40
2783;DHT22;1399;47.072;15.452;2023-08-01T14:20:46;21.00;85.60
2783;DHT22;1399;47.072;15.452;2023-08-01T14:23:12;21.00;85.60
2783;DHT22;1399;47.072;15.452;2023-08-01T14:25:38;21.00;85.70
2783;DHT22;1399;47.072;15.452;2023-08-01T14:28:04;21.00;85.90
2783;DHT22;1399;47.072;15.452;2023-08-01T14:30:29;20.90;85.80
2783;DHT22;1399;47.072;15.452;2023-08-01T14:33:02;20.90;85.80
2783;DHT22;1399;47.072;15.452;2023-08-01T14:35:29;20.90;85.70
2783;DHT22;1399;47.072;15.452;2023-08-01T14:37:55;20.90;85.80
2783;DHT22;1399;47.072;15.452;2023-08-01T14:40:21;20.90;85.90
2783;DHT22;1399;47.072;15.452;2023-08-01T14:42:47;20.90;85.80
2783;DHT22;1399;47.072;15.452;2023-08-01T14:45:13;20.90;85.80
2783;DHT22;1399;47.072;15.452;2023-08-01T14:47:40;20.90;85.90
2783;DHT22;1399;47.072;15.452;2023-08-01T14:50:07;20.90;86.10
2783;DHT22;1399;47.072;15.452;2023-08-01T14:52:33;20.90;86.20
2783;DHT22;1399;47.072;15.452;2023-08-01T14:54:59;20.90;86.20
2783;DHT22;1399;47.072;15.452;2023-08-01T14:57:25;20.90;86.20
2783;DHT22;1399;47.072;15.452;2023-08-01T14:59:50;20.90;86.20
2783;DHT22;1399;47.072;15.452;2023-08-01T15:02:16;20.90;86.30
2783;DHT22;1399;47.072;15.452;2023-08-01T15:04:42;20.90;86.30
2783;DHT22;1399;47.072;15.452;2023-08-01T15:07:08;20.90;86.10
2783;DHT22;1399;47.072;15.452;2023-08-01T15:09:34;21.00;86.20
2783;DHT22;1399;47.072;15.452;2023-08-01T15:12:00;20.90;86.20
2783;DHT22;1399;47.072;15.452;2023-08-01T15:14:26;21.00;86.40
2783;DHT22;1399;47.072;15.452;2023-08-01T15:16:52;20.90;86.30
2783;DHT22;1399;47.072;15.452;2023-08-01T15:19:18;20.90;86.30
2783;DHT22;1399;47.072;15.452;2023-08-01T15:21:47;20.90;86.30
2783;DHT22;1399;47.072;15.452;2023-08-01T15:24:12;20.90;86.40
2783;DHT22;1399;47.072;15.452;2023-08-01T15:26:38;20.90;86.50
2783;DHT22;1399;47.072;15.452;2023-08-01T15:29:04;20.90;86.50
2783;DHT22;1399;47.072;15.452;2023-08-01T15:31:30;20.90;86.50
2783;DHT22;1399;47.072;15.452;2023-08-01T15:33:56;20.90;86.40
2783;DHT22;1399;47.072;15.452;2023-08-01T15:36:29;21.00;86.50
2783;DHT22;1399;47.072;15.452;2023-08-01T15:38:58;21.00;86.50
2783;DHT22;1399;47.072;15.452;2023-08-01T15:41:24;21.00;86.60
2783;DHT22;1399;47.072;15.452;2023-08-01T15:43:50;20.90;86.60
2783;DHT22;1399;47.072;15.452;2023-08-01T15:46:15;20.90;86.70